sensor_id;sensor_type;location;lat;lon;timestamp;P1;durP1;ratioP1;P2;durP2;ratioP2
10987;SDS011;5547;42.672;23.230;2024-03-23T00:53:59;16.63;;;11.55;;
10987;SDS011;5547;42.672;23.230;2024-03-23T00:56:59;18.57;;;12.03;;
10987;SDS011;5547;42.672;23.230;2024-03-23T00:59:59;17.33;;;11.87;;
10987;SDS011;5547;42.672;23.230;2024-03-23T01:03:00;19.45;;;12.85;;
10987;SDS011;5547;42.672;23.230;2024-03-23T01:06:00;17.03;;;11.33;;
10987;SDS011;5547;42.672;23.230;2024-03-23T01:09:01;15.63;;;11.27;;
10987;SDS011;5547;42.672;23.230;2024-03-23T01:12:01;17.17;;;10.73;;
10987;SDS011;5547;42.672;23.230;2024-03-23T01:15:01;20.00;;;13.00;;
10987;SDS011;5547;42.672;23.230;2024-03-23T01:18:02;16.80;;;12.88;;
10987;SDS011;5547;42.672;23.230;2024-03-23T01:21:02;16.23;;;10.97;;
10987;SDS011;5547;42.672;23.230;2024-03-23T01:24:03;15.27;;;10.10;;
10987;SDS011;5547;42.672;23.230;2024-03-23T01:27:03;11.77;;;8.10;;
10987;SDS011;5547;42.672;23.230;2024-03-23T01:30:04;11.55;;;7.70;;
10987;SDS011;5547;42.672;23.230;2024-03-23T01:33:04;13.40;;;8.10;;
10987;SDS011;5547;42.672;23.230;2024-03-23T01:36:04;15.70;;;9.20;;
10987;SDS011;5547;42.672;23.230;2024-03-23T01:39:04;13.57;;;8.30;;
10987;SDS011;5547;42.672;23.230;2024-03-23T01:42:05;15.38;;;9.57;;
10987;SDS011;5547;42.672;23.230;2024-03-23T01:45:09;13.73;;;9.10;;
10987;SDS011;5547;42.672;23.230;2024-03-23T01:48:12;12.90;;;8.32;;
10987;SDS011;5547;42.672;23.230;2024-03-23T01:51:13;12.20;;;8.50;;
10987;SDS011;5547;42.672;23.230;2024-03-23T01:54:13;12.60;;;9.18;;
10987;SDS011;5547;42.672;23.230;2024-03-23T01:57:13;18.40;;;11.40;;
10987;SDS011;5547;42.672;23.230;2024-03-23T02:00:14;15.00;;;11.30;;
10987;SDS011;5547;42.672;23.230;2024-03-23T02:03:24;15.13;;;10.23;;
10987;SDS011;5547;42.672;23.230;2024-03-23T02:06:25;14.13;;;9.70;;
10987;SDS011;5547;42.672;23.230;2024-03-23T02:09:25;14.83;;;9.73;;
10987;SDS011;5547;42.672;23.230;2024-03-23T02:12:25;12.93;;;9.53;;
10987;SDS011;5547;42.672;23.230;2024-03-23T02:15:26;13.03;;;9.13;;
10987;SDS011;5547;42.672;23.230;2024-03-23T02:18:26;11.87;;;8.97;;
10987;SDS011;5547;42.672;23.230;2024-03-23T02:21:26;13.70;;;9.00;;
10987;SDS011;5547;42.672;23.230;2024-03-23T02:24:29;12.15;;;8.43;;
10987;SDS011;5547;42.672;23.230;2024-03-23T02:27:29;11.80;;;8.43;;
10987;SDS011;5547;42.672;23.230;2024-03-23T02:30:29;10.93;;;7.70;;
10987;SDS011;5547;42.672;23.230;2024-03-23T02:33:30;13.53;;;8.47;;
10987;SDS011;5547;42.672;23.230;2024-03-23T02:36:30;13.47;;;8.57;;
10987;SDS011;5547;42.672;23.230;2024-03-23T02:39:31;13.80;;;8.98;;
10987;SDS011;5547;42.672;23.230;2024-03-23T02:42:31;14.37;;;9.23;;
10987;SDS011;5547;42.672;23.230;2024-03-23T02:45:31;15.20;;;10.57;;
10987;SDS011;5547;42.672;23.230;2024-03-23T02:48:32;17.67;;;10.67;;
10987;SDS011;5547;42.672;23.230;2024-03-23T02:51:32;17.00;;;10.50;;
10987;SDS011;5547;42.672;23.230;2024-03-23T02:54:32;15.87;;;9.40;;
10987;SDS011;5547;42.672;23.230;2024-03-23T02:57:32;15.23;;;10.23;;
10987;SDS011;5547;42.672;23.230;2024-03-23T03:00:33;17.10;;;10.80;;
10987;SDS011;5547;42.672;23.230;2024-03-23T03:03:33;19.90;;;13.20;;
10987;SDS011;5547;42.672;23.230;2024-03-23T03:06:33;16.77;;;11.27;;
10987;SDS011;5547;42.672;23.230;2024-03-23T03:09:33;17.35;;;11.50;;
10987;SDS011;5547;42.672;23.230;2024-03-23T03:12:35;16.10;;;11.13;;
10987;SDS011;5547;42.672;23.230;2024-03-23T03:15:35;17.83;;;11.10;;
10987;SDS011;5547;42.672;23.230;2024-03-23T03:18:35;15.33;;;10.37;;
10987;SDS011;5547;42.672;23.230;2024-03-23T03:21:36;17.27;;;10.33;;
10987;SDS011;5547;42.672;23.230;2024-03-23T03:24:36;14.98;;;10.50;;
10987;SDS011;5547;42.672;23.230;2024-03-23T03:27:37;14.80;;;10.10;;
10987;SDS011;5547;42.672;23.230;2024-03-23T03:30:37;19.10;;;10.60;;
10987;SDS011;5547;42.672;23.230;2024-03-23T03:33:37;143.10;;;20.17;;
10987;SDS011;5547;42.672;23.230;2024-03-23T03:36:37;17.90;;;11.57;;
10987;SDS011;5547;42.672;23.230;2024-03-23T03:39:38;16.43;;;10.57;;
10987;SDS011;5547;42.672;23.230;2024-03-23T03:42:38;17.70;;;11.27;;
10987;SDS011;5547;42.672;23.230;2024-03-23T03:45:38;16.53;;;10.90;;
10987;SDS011;5547;42.672;23.230;2024-03-23T03:48:38;15.73;;;10.57;;
10987;SDS011;5547;42.672;23.230;2024-03-23T03:51:39;17.20;;;10.97;;
10987;SDS011;5547;42.672;23.230;2024-03-23T03:54:39;16.30;;;9.97;;
10987;SDS011;5547;42.672;23.230;2024-03-23T03:57:40;17.83;;;11.10;;
10987;SDS011;5547;42.672;23.230;2024-03-23T04:00:40;16.13;;;11.30;;
10987;SDS011;5547;42.672;23.230;2024-03-23T04:03:40;18.27;;;11.77;;
10987;SDS011;5547;42.672;23.230;2024-03-23T04:06:43;17.80;;;10.82;;
10987;SDS011;5547;42.672;23.230;2024-03-23T04:09:44;16.80;;;11.03;;
10987;SDS011;5547;42.672;23.230;2024-03-23T04:12:44;18.17;;;11.67;;
10987;SDS011;5547;42.672;23.230;2024-03-23T04:15:45;16.70;;;10.93;;
10987;SDS011;5547;42.672;23.230;2024-03-23T04:18:45;25.37;;;15.43;;
10987;SDS011;5547;42.672;23.230;2024-03-23T04:21:47;23.27;;;14.67;;
10987;SDS011;5547;42.672;23.230;2024-03-23T04:24:47;23.23;;;14.13;;
10987;SDS011;5547;42.672;23.230;2024-03-23T04:27:48;20.60;;;12.57;;
10987;SDS011;5547;42.672;23.230;2024-03-23T04:30:48;16.00;;;10.83;;
10987;SDS011;5547;42.672;23.230;2024-03-23T04:33:49;16.60;;;10.55;;
10987;SDS011;5547;42.672;23.230;2024-03-23T04:36:49;16.73;;;11.40;;
10987;SDS011;5547;42.672;23.230;2024-03-23T04:39:49;16.77;;;10.47;;
10987;SDS011;5547;42.672;23.230;2024-03-23T04:42:50;16.53;;;10.80;;
10987;SDS011;5547;42.672;23.230;2024-03-23T04:45:50;16.70;;;11.07;;
10987;SDS011;5547;42.672;23.230;2024-03-23T04:48:50;18.10;;;11.90;;
10987;SDS011;5547;42.672;23.230;2024-03-23T04:51:50;16.23;;;12.03;;
10987;SDS011;5547;42.672;23.230;2024-03-23T04:54:51;19.80;;;12.77;;
10987;SDS011;5547;42.672;23.230;2024-03-23T04:57:51;17.43;;;11.97;;
10987;SDS011;5547;42.672;23.230;2024-03-23T05:00:54;22.23;;;13.10;;
10987;SDS011;5547;42.672;23.230;2024-03-23T05:03:55;20.63;;;13.35;;
10987;SDS011;5547;42.672;23.230;2024-03-23T05:06:55;22.90;;;14.87;;
10987;SDS011;5547;42.672;23.230;2024-03-23T05:09:55;21.35;;;13.20;;
10987;SDS011;5547;42.672;23.230;2024-03-23T05:12:56;20.93;;;14.03;;
10987;SDS011;5547;42.672;23.230;2024-03-23T05:15:56;21.50;;;14.43;;
10987;SDS011;5547;42.672;23.230;2024-03-23T05:18:56;19.47;;;13.33;;
10987;SDS011;5547;42.672;23.230;2024-03-23T05:21:56;19.30;;;12.60;;
10987;SDS011;5547;42.672;23.230;2024-03-23T05:24:57;21.63;;;14.63;;
10987;SDS011;5547;42.672;23.230;2024-03-23T05:27:57;19.23;;;14.43;;
10987;SDS011;5547;42.672;23.230;2024-03-23T05:30:57;16.00;;;11.53;;
10987;SDS011;5547;42.672;23.230;2024-03-23T05:33:58;15.83;;;11.50;;
10987;SDS011;5547;42.672;23.230;2024-03-23T05:36:58;14.77;;;10.40;;
10987;SDS011;5547;42.672;23.230;2024-03-23T05:39:58;16.55;;;11.27;;
10987;SDS011;5547;42.672;23.230;2024-03-23T05:42:58;15.20;;;10.87;;
10987;SDS011;5547;42.672;23.230;2024-03-23T05:45:59;14.67;;;9.90;;
10987;SDS011;5547;42.672;23.230;2024-03-23T05:49:00;17.23;;;11.03;;
10987;SDS011;5547;42.672;23.230;2024-03-23T05:52:01;16.92;;;10.88;;
10987;SDS011;5547;42.672;23.230;2024-03-23T05:55:03;16.52;;;11.13;;
10987;SDS011;5547;42.672;23.230;2024-03-23T05:58:04;18.47;;;12.20;;
10987;SDS011;5547;42.672;23.230;2024-03-23T06:01:04;15.83;;;11.67;;
10987;SDS011;5547;42.672;23.230;2024-03-23T06:04:04;15.85;;;11.20;;
10987;SDS011;5547;42.672;23.230;2024-03-23T06:07:04;15.73;;;11.40;;
10987;SDS011;5547;42.672;23.230;2024-03-23T06:10:13;17.00;;;11.57;;
10987;SDS011;5547;42.672;23.230;2024-03-23T06:13:13;17.20;;;11.73;;
10987;SDS011;5547;42.672;23.230;2024-03-23T06:16:14;15.47;;;10.90;;
10987;SDS011;5547;42.672;23.230;2024-03-23T06:19:14;18.23;;;11.93;;
10987;SDS011;5547;42.672;23.230;2024-03-23T06:22:15;17.40;;;11.55;;
10987;SDS011;5547;42.672;23.230;2024-03-23T06:25:16;15.90;;;11.03;;
10987;SDS011;5547;42.672;23.230;2024-03-23T06:28:16;15.53;;;11.47;;
10987;SDS011;5547;42.672;23.230;2024-03-23T06:31:16;16.25;;;10.95;;
10987;SDS011;5547;42.672;23.230;2024-03-23T06:34:16;14.87;;;11.13;;
10987;SDS011;5547;42.672;23.230;2024-03-23T06:37:17;14.13;;;9.50;;
10987;SDS011;5547;42.672;23.230;2024-03-23T06:40:17;13.83;;;9.70;;
10987;SDS011;5547;42.672;23.230;2024-03-23T06:43:17;13.30;;;10.27;;
10987;SDS011;5547;42.672;23.230;2024-03-23T06:46:18;18.30;;;11.40;;
10987;SDS011;5547;42.672;23.230;2024-03-23T06:49:18;13.80;;;9.75;;
10987;SDS011;5547;42.672;23.230;2024-03-23T06:52:18;14.83;;;10.47;;
10987;SDS011;5547;42.672;23.230;2024-03-23T06:55:18;15.53;;;11.47;;
10987;SDS011;5547;42.672;23.230;2024-03-23T06:58:24;17.50;;;11.37;;
10987;SDS011;5547;42.672;23.230;2024-03-23T07:01:24;17.00;;;11.57;;
10987;SDS011;5547;42.672;23.230;2024-03-23T07:04:24;15.37;;;11.57;;
10987;SDS011;5547;42.672;23.230;2024-03-23T07:07:25;16.00;;;12.50;;
10987;SDS011;5547;42.672;23.230;2024-03-23T07:10:25;15.83;;;11.63;;
10987;SDS011;5547;42.672;23.230;2024-03-23T07:13:25;19.97;;;13.33;;
10987;SDS011;5547;42.672;23.230;2024-03-23T07:16:26;17.43;;;12.47;;
10987;SDS011;5547;42.672;23.230;2024-03-23T07:19:26;19.33;;;13.30;;
10987;SDS011;5547;42.672;23.230;2024-03-23T07:22:28;20.60;;;12.90;;
10987;SDS011;5547;42.672;23.230;2024-03-23T07:25:28;18.50;;;13.47;;
10987;SDS011;5547;42.672;23.230;2024-03-23T07:28:29;20.03;;;14.00;;
10987;SDS011;5547;42.672;23.230;2024-03-23T07:31:31;17.08;;;12.77;;
10987;SDS011;5547;42.672;23.230;2024-03-23T07:34:32;19.27;;;13.43;;
10987;SDS011;5547;42.672;23.230;2024-03-23T07:37:32;20.87;;;14.03;;
10987;SDS011;5547;42.672;23.230;2024-03-23T07:40:32;20.03;;;14.23;;
10987;SDS011;5547;42.672;23.230;2024-03-23T07:43:33;17.97;;;12.20;;
10987;SDS011;5547;42.672;23.230;2024-03-23T07:46:33;19.67;;;12.63;;
10987;SDS011;5547;42.672;23.230;2024-03-23T07:49:33;22.60;;;13.33;;
10987;SDS011;5547;42.672;23.230;2024-03-23T07:52:33;17.88;;;11.95;;
10987;SDS011;5547;42.672;23.230;2024-03-23T07:55:34;17.93;;;13.30;;
10987;SDS011;5547;42.672;23.230;2024-03-23T07:58:34;17.50;;;12.63;;
10987;SDS011;5547;42.672;23.230;2024-03-23T08:01:34;22.03;;;13.20;;
10987;SDS011;5547;42.672;23.230;2024-03-23T08:04:35;20.00;;;13.40;;
10987;SDS011;5547;42.672;23.230;2024-03-23T08:07:35;18.03;;;13.30;;
10987;SDS011;5547;42.672;23.230;2024-03-23T08:10:35;20.60;;;14.13;;
10987;SDS011;5547;42.672;23.230;2024-03-23T08:13:36;20.10;;;13.37;;
10987;SDS011;5547;42.672;23.230;2024-03-23T08:16:36;18.90;;;13.88;;
10987;SDS011;5547;42.672;23.230;2024-03-23T08:19:36;18.43;;;13.13;;
10987;SDS011;5547;42.672;23.230;2024-03-23T08:22:37;19.27;;;14.07;;
10987;SDS011;5547;42.672;23.230;2024-03-23T08:25:37;17.67;;;13.20;;
10987;SDS011;5547;42.672;23.230;2024-03-23T08:28:37;17.43;;;11.83;;
10987;SDS011;5547;42.672;23.230;2024-03-23T08:31:38;16.75;;;11.75;;
10987;SDS011;5547;42.672;23.230;2024-03-23T08:34:39;20.80;;;13.67;;
10987;SDS011;5547;42.672;23.230;2024-03-23T08:37:39;18.40;;;13.30;;
10987;SDS011;5547;42.672;23.230;2024-03-23T08:40:39;16.57;;;12.47;;
10987;SDS011;5547;42.672;23.230;2024-03-23T08:43:40;18.37;;;12.80;;
10987;SDS011;5547;42.672;23.230;2024-03-23T08:46:40;16.90;;;12.25;;
10987;SDS011;5547;42.672;23.230;2024-03-23T08:49:41;17.05;;;12.00;;
10987;SDS011;5547;42.672;23.230;2024-03-23T08:52:44;15.83;;;12.10;;
10987;SDS011;5547;42.672;23.230;2024-03-23T08:55:52;16.83;;;11.68;;
10987;SDS011;5547;42.672;23.230;2024-03-23T08:58:52;17.27;;;11.90;;
10987;SDS011;5547;42.672;23.230;2024-03-23T09:01:53;17.70;;;12.60;;
10987;SDS011;5547;42.672;23.230;2024-03-23T09:04:53;16.57;;;11.97;;
10987;SDS011;5547;42.672;23.230;2024-03-23T09:07:54;16.40;;;11.43;;
10987;SDS011;5547;42.672;23.230;2024-03-23T09:10:54;18.13;;;12.83;;
10987;SDS011;5547;42.672;23.230;2024-03-23T09:13:55;17.40;;;11.30;;
10987;SDS011;5547;42.672;23.230;2024-03-23T09:16:55;18.43;;;12.07;;
10987;SDS011;5547;42.672;23.230;2024-03-23T09:19:56;15.23;;;11.17;;
10987;SDS011;5547;42.672;23.230;2024-03-23T09:22:56;17.48;;;11.95;;
10987;SDS011;5547;42.672;23.230;2024-03-23T09:25:56;18.60;;;12.53;;
10987;SDS011;5547;42.672;23.230;2024-03-23T09:28:57;21.43;;;14.30;;
10987;SDS011;5547;42.672;23.230;2024-03-23T09:31:57;17.33;;;12.43;;
10987;SDS011;5547;42.672;23.230;2024-03-23T09:34:57;18.43;;;11.57;;
10987;SDS011;5547;42.672;23.230;2024-03-23T09:37:57;18.17;;;12.73;;
10987;SDS011;5547;42.672;23.230;2024-03-23T09:40:58;17.03;;;11.63;;
10987;SDS011;5547;42.672;23.230;2024-03-23T09:43:59;18.17;;;12.80;;
10987;SDS011;5547;42.672;23.230;2024-03-23T09:46:59;16.60;;;11.50;;
10987;SDS011;5547;42.672;23.230;2024-03-23T09:50:00;17.93;;;11.70;;
10987;SDS011;5547;42.672;23.230;2024-03-23T09:53:00;14.90;;;10.70;;
10987;SDS011;5547;42.672;23.230;2024-03-23T09:56:01;19.55;;;11.10;;
10987;SDS011;5547;42.672;23.230;2024-03-23T09:59:03;15.38;;;10.90;;
10987;SDS011;5547;42.672;23.230;2024-03-23T10:02:03;20.80;;;12.57;;
10987;SDS011;5547;42.672;23.230;2024-03-23T10:05:04;16.37;;;10.87;;
10987;SDS011;5547;42.672;23.230;2024-03-23T10:11:14;14.73;;;11.07;;
10987;SDS011;5547;42.672;23.230;2024-03-23T10:14:25;13.33;;;10.10;;
10987;SDS011;5547;42.672;23.230;2024-03-23T10:17:28;17.25;;;9.65;;
10987;SDS011;5547;42.672;23.230;2024-03-23T10:20:28;14.60;;;10.00;;
10987;SDS011;5547;42.672;23.230;2024-03-23T10:23:29;12.03;;;8.93;;
10987;SDS011;5547;42.672;23.230;2024-03-23T10:26:29;12.07;;;8.20;;
10987;SDS011;5547;42.672;23.230;2024-03-23T10:29:30;13.57;;;8.45;;
10987;SDS011;5547;42.672;23.230;2024-03-23T10:32:30;11.40;;;7.40;;
10987;SDS011;5547;42.672;23.230;2024-03-23T10:35:31;12.77;;;7.47;;
10987;SDS011;5547;42.672;23.230;2024-03-23T10:38:31;10.60;;;7.67;;
10987;SDS011;5547;42.672;23.230;2024-03-23T10:41:32;9.60;;;6.18;;
10987;SDS011;5547;42.672;23.230;2024-03-23T10:44:32;12.17;;;6.47;;
10987;SDS011;5547;42.672;23.230;2024-03-23T10:47:34;9.65;;;5.72;;
10987;SDS011;5547;42.672;23.230;2024-03-23T10:50:35;9.32;;;6.63;;
10987;SDS011;5547;42.672;23.230;2024-03-23T10:53:35;9.57;;;6.37;;
10987;SDS011;5547;42.672;23.230;2024-03-23T10:56:37;11.13;;;6.68;;
10987;SDS011;5547;42.672;23.230;2024-03-23T10:59:39;9.95;;;6.47;;
10987;SDS011;5547;42.672;23.230;2024-03-23T11:02:40;13.33;;;6.87;;
10987;SDS011;5547;42.672;23.230;2024-03-23T11:05:46;13.95;;;7.85;;
10987;SDS011;5547;42.672;23.230;2024-03-23T11:08:46;13.68;;;8.32;;
10987;SDS011;5547;42.672;23.230;2024-03-23T11:11:46;18.10;;;8.67;;
10987;SDS011;5547;42.672;23.230;2024-03-23T11:14:47;9.67;;;5.53;;
10987;SDS011;5547;42.672;23.230;2024-03-23T11:18:05;13.98;;;7.50;;
10987;SDS011;5547;42.672;23.230;2024-03-23T11:21:08;5.18;;;2.97;;
10987;SDS011;5547;42.672;23.230;2024-03-23T11:24:14;5.87;;;3.27;;
10987;SDS011;5547;42.672;23.230;2024-03-23T11:27:15;6.40;;;3.80;;
10987;SDS011;5547;42.672;23.230;2024-03-23T11:30:16;6.20;;;3.30;;
10987;SDS011;5547;42.672;23.230;2024-03-23T11:33:17;5.77;;;3.07;;
10987;SDS011;5547;42.672;23.230;2024-03-23T11:36:20;6.28;;;3.25;;
10987;SDS011;5547;42.672;23.230;2024-03-23T11:39:21;6.20;;;3.15;;
10987;SDS011;5547;42.672;23.230;2024-03-23T11:42:21;4.27;;;2.50;;
10987;SDS011;5547;42.672;23.230;2024-03-23T11:45:21;4.90;;;2.80;;
10987;SDS011;5547;42.672;23.230;2024-03-23T11:48:22;9.47;;;4.97;;
10987;SDS011;5547;42.672;23.230;2024-03-23T11:51:23;3.75;;;2.50;;
10987;SDS011;5547;42.672;23.230;2024-03-23T11:54:24;10.07;;;4.20;;
10987;SDS011;5547;42.672;23.230;2024-03-23T11:57:24;9.82;;;4.50;;
10987;SDS011;5547;42.672;23.230;2024-03-23T12:00:24;6.53;;;3.53;;
10987;SDS011;5547;42.672;23.230;2024-03-23T12:03:28;4.00;;;2.77;;
10987;SDS011;5547;42.672;23.230;2024-03-23T12:06:28;3.00;;;1.48;;
10987;SDS011;5547;42.672;23.230;2024-03-23T12:09:29;2.10;;;1.60;;
10987;SDS011;5547;42.672;23.230;2024-03-23T12:12:29;2.43;;;1.07;;
10987;SDS011;5547;42.672;23.230;2024-03-23T12:15:29;2.20;;;1.30;;
10987;SDS011;5547;42.672;23.230;2024-03-23T12:18:30;2.67;;;1.50;;
10987;SDS011;5547;42.672;23.230;2024-03-23T12:21:31;3.10;;;1.67;;
10987;SDS011;5547;42.672;23.230;2024-03-23T12:24:31;2.17;;;1.37;;
10987;SDS011;5547;42.672;23.230;2024-03-23T12:27:34;3.20;;;1.30;;
10987;SDS011;5547;42.672;23.230;2024-03-23T12:30:35;3.10;;;1.60;;
10987;SDS011;5547;42.672;23.230;2024-03-23T12:33:38;2.13;;;1.60;;
10987;SDS011;5547;42.672;23.230;2024-03-23T12:36:38;3.40;;;2.08;;
10987;SDS011;5547;42.672;23.230;2024-03-23T12:39:39;2.25;;;1.90;;
10987;SDS011;5547;42.672;23.230;2024-03-23T12:42:39;3.77;;;1.90;;
10987;SDS011;5547;42.672;23.230;2024-03-23T12:45:39;2.13;;;1.53;;
10987;SDS011;5547;42.672;23.230;2024-03-23T12:48:40;3.38;;;1.88;;
10987;SDS011;5547;42.672;23.230;2024-03-23T12:51:46;2.10;;;1.60;;
10987;SDS011;5547;42.672;23.230;2024-03-23T12:54:47;3.47;;;1.60;;
10987;SDS011;5547;42.672;23.230;2024-03-23T12:57:48;2.70;;;1.50;;
10987;SDS011;5547;42.672;23.230;2024-03-23T13:00:48;3.10;;;1.60;;
10987;SDS011;5547;42.672;23.230;2024-03-23T13:03:49;2.67;;;1.53;;
10987;SDS011;5547;42.672;23.230;2024-03-23T13:06:49;3.10;;;1.23;;
10987;SDS011;5547;42.672;23.230;2024-03-23T13:09:50;2.67;;;1.20;;
10987;SDS011;5547;42.672;23.230;2024-03-23T13:12:50;2.22;;;1.35;;
10987;SDS011;5547;42.672;23.230;2024-03-23T13:15:51;3.80;;;2.10;;
10987;SDS011;5547;42.672;23.230;2024-03-23T13:18:51;4.10;;;1.70;;
10987;SDS011;5547;42.672;23.230;2024-03-23T13:21:52;2.53;;;1.30;;
10987;SDS011;5547;42.672;23.230;2024-03-23T13:24:52;2.33;;;1.52;;
10987;SDS011;5547;42.672;23.230;2024-03-23T13:27:52;2.53;;;2.03;;
10987;SDS011;5547;42.672;23.230;2024-03-23T13:30:53;3.40;;;2.10;;
10987;SDS011;5547;42.672;23.230;2024-03-23T13:33:53;2.90;;;2.10;;
10987;SDS011;5547;42.672;23.230;2024-03-23T13:36:53;3.23;;;1.70;;
10987;SDS011;5547;42.672;23.230;2024-03-23T13:39:54;3.80;;;2.10;;
10987;SDS011;5547;42.672;23.230;2024-03-23T13:42:54;2.13;;;1.50;;
10987;SDS011;5547;42.672;23.230;2024-03-23T13:45:58;2.43;;;1.87;;
10987;SDS011;5547;42.672;23.230;2024-03-23T13:48:59;3.33;;;1.90;;
10987;SDS011;5547;42.672;23.230;2024-03-23T13:51:59;3.10;;;2.17;;
10987;SDS011;5547;42.672;23.230;2024-03-23T13:55:00;2.30;;;1.80;;
10987;SDS011;5547;42.672;23.230;2024-03-23T13:58:00;3.13;;;2.03;;
10987;SDS011;5547;42.672;23.230;2024-03-23T14:01:00;2.80;;;1.87;;
10987;SDS011;5547;42.672;23.230;2024-03-23T14:04:00;2.73;;;2.00;;
10987;SDS011;5547;42.672;23.230;2024-03-23T14:07:01;2.67;;;1.90;;
10987;SDS011;5547;42.672;23.230;2024-03-23T14:10:04;2.43;;;1.87;;
10987;SDS011;5547;42.672;23.230;2024-03-23T14:13:06;3.23;;;2.10;;
10987;SDS011;5547;42.672;23.230;2024-03-23T14:16:06;3.63;;;2.17;;
10987;SDS011;5547;42.672;23.230;2024-03-23T14:19:07;2.80;;;1.97;;
10987;SDS011;5547;42.672;23.230;2024-03-23T14:22:07;3.53;;;1.97;;
10987;SDS011;5547;42.672;23.230;2024-03-23T14:25:07;4.63;;;2.33;;
10987;SDS011;5547;42.672;23.230;2024-03-23T14:28:08;3.17;;;2.33;;
10987;SDS011;5547;42.672;23.230;2024-03-23T14:31:17;3.20;;;2.30;;
10987;SDS011;5547;42.672;23.230;2024-03-23T14:34:17;3.37;;;2.60;;
10987;SDS011;5547;42.672;23.230;2024-03-23T14:37:18;3.53;;;2.20;;
10987;SDS011;5547;42.672;23.230;2024-03-23T14:40:18;3.73;;;2.03;;
10987;SDS011;5547;42.672;23.230;2024-03-23T14:43:18;4.83;;;2.63;;
10987;SDS011;5547;42.672;23.230;2024-03-23T14:46:19;3.87;;;2.70;;
10987;SDS011;5547;42.672;23.230;2024-03-23T14:49:19;3.60;;;2.78;;
10987;SDS011;5547;42.672;23.230;2024-03-23T14:52:20;5.30;;;3.00;;
10987;SDS011;5547;42.672;23.230;2024-03-23T14:55:20;3.53;;;2.80;;
10987;SDS011;5547;42.672;23.230;2024-03-23T14:58:20;3.87;;;2.43;;
10987;SDS011;5547;42.672;23.230;2024-03-23T15:01:21;4.60;;;2.83;;
10987;SDS011;5547;42.672;23.230;2024-03-23T15:04:21;3.43;;;2.60;;
10987;SDS011;5547;42.672;23.230;2024-03-23T15:07:21;4.20;;;2.60;;
10987;SDS011;5547;42.672;23.230;2024-03-23T15:10:21;3.87;;;2.40;;
10987;SDS011;5547;42.672;23.230;2024-03-23T15:13:23;3.65;;;2.70;;
10987;SDS011;5547;42.672;23.230;2024-03-23T15:16:24;3.83;;;2.85;;
10987;SDS011;5547;42.672;23.230;2024-03-23T15:19:24;4.27;;;3.13;;
10987;SDS011;5547;42.672;23.230;2024-03-23T15:22:24;5.27;;;3.20;;
10987;SDS011;5547;42.672;23.230;2024-03-23T15:25:24;5.97;;;2.83;;
10987;SDS011;5547;42.672;23.230;2024-03-23T15:28:25;4.93;;;3.20;;
10987;SDS011;5547;42.672;23.230;2024-03-23T15:31:38;4.87;;;3.03;;
10987;SDS011;5547;42.672;23.230;2024-03-23T15:34:38;4.88;;;3.05;;
10987;SDS011;5547;42.672;23.230;2024-03-23T15:37:38;4.50;;;3.03;;
10987;SDS011;5547;42.672;23.230;2024-03-23T15:40:39;4.63;;;2.93;;
10987;SDS011;5547;42.672;23.230;2024-03-23T15:43:39;3.13;;;2.40;;
10987;SDS011;5547;42.672;23.230;2024-03-23T15:46:40;3.77;;;2.70;;
10987;SDS011;5547;42.672;23.230;2024-03-23T15:49:40;4.87;;;3.10;;
10987;SDS011;5547;42.672;23.230;2024-03-23T15:52:40;3.70;;;2.90;;
10987;SDS011;5547;42.672;23.230;2024-03-23T15:55:40;3.47;;;2.60;;
10987;SDS011;5547;42.672;23.230;2024-03-23T15:58:41;3.87;;;2.40;;
10987;SDS011;5547;42.672;23.230;2024-03-23T16:01:41;4.30;;;3.70;;
10987;SDS011;5547;42.672;23.230;2024-03-23T16:04:43;5.13;;;3.38;;
10987;SDS011;5547;42.672;23.230;2024-03-23T16:07:45;4.50;;;3.22;;
10987;SDS011;5547;42.672;23.230;2024-03-23T16:10:45;4.73;;;3.10;;
10987;SDS011;5547;42.672;23.230;2024-03-23T16:13:46;4.80;;;3.27;;
10987;SDS011;5547;42.672;23.230;2024-03-23T16:16:46;3.80;;;2.87;;
10987;SDS011;5547;42.672;23.230;2024-03-23T16:19:47;4.15;;;2.63;;
10987;SDS011;5547;42.672;23.230;2024-03-23T16:22:47;3.77;;;2.80;;
10987;SDS011;5547;42.672;23.230;2024-03-23T16:25:48;3.30;;;2.37;;
10987;SDS011;5547;42.672;23.230;2024-03-23T16:28:57;5.80;;;3.30;;
10987;SDS011;5547;42.672;23.230;2024-03-23T16:31:57;3.77;;;3.00;;
10987;SDS011;5547;42.672;23.230;2024-03-23T16:34:57;4.20;;;2.70;;
10987;SDS011;5547;42.672;23.230;2024-03-23T16:37:58;3.65;;;2.50;;
10987;SDS011;5547;42.672;23.230;2024-03-23T16:41:06;3.90;;;2.70;;
10987;SDS011;5547;42.672;23.230;2024-03-23T16:44:07;5.05;;;3.00;;
10987;SDS011;5547;42.672;23.230;2024-03-23T16:47:07;4.37;;;3.00;;
10987;SDS011;5547;42.672;23.230;2024-03-23T16:50:08;4.53;;;3.17;;
10987;SDS011;5547;42.672;23.230;2024-03-23T16:53:09;4.00;;;3.10;;
10987;SDS011;5547;42.672;23.230;2024-03-23T16:56:09;6.03;;;3.60;;
10987;SDS011;5547;42.672;23.230;2024-03-23T16:59:09;4.47;;;3.10;;
10987;SDS011;5547;42.672;23.230;2024-03-23T17:02:10;6.73;;;3.50;;
10987;SDS011;5547;42.672;23.230;2024-03-23T17:05:10;4.50;;;3.40;;
10987;SDS011;5547;42.672;23.230;2024-03-23T17:08:10;5.17;;;3.30;;
10987;SDS011;5547;42.672;23.230;2024-03-23T17:11:10;4.25;;;3.28;;
10987;SDS011;5547;42.672;23.230;2024-03-23T17:14:11;4.97;;;3.50;;
10987;SDS011;5547;42.672;23.230;2024-03-23T17:17:12;4.90;;;3.20;;
10987;SDS011;5547;42.672;23.230;2024-03-23T17:20:12;5.13;;;3.00;;
10987;SDS011;5547;42.672;23.230;2024-03-23T17:23:12;4.70;;;2.70;;
10987;SDS011;5547;42.672;23.230;2024-03-23T17:26:13;4.80;;;3.00;;
10987;SDS011;5547;42.672;23.230;2024-03-23T17:29:13;4.50;;;2.90;;
10987;SDS011;5547;42.672;23.230;2024-03-23T17:32:13;5.57;;;2.80;;
10987;SDS011;5547;42.672;23.230;2024-03-23T17:35:14;5.20;;;3.17;;
10987;SDS011;5547;42.672;23.230;2024-03-23T17:38:14;4.03;;;2.93;;
10987;SDS011;5547;42.672;23.230;2024-03-23T17:41:14;4.30;;;3.15;;
10987;SDS011;5547;42.672;23.230;2024-03-23T17:44:15;4.07;;;3.03;;
10987;SDS011;5547;42.672;23.230;2024-03-23T17:47:15;4.47;;;3.30;;
10987;SDS011;5547;42.672;23.230;2024-03-23T17:50:17;4.40;;;3.10;;
10987;SDS011;5547;42.672;23.230;2024-03-23T17:53:18;4.93;;;2.90;;
10987;SDS011;5547;42.672;23.230;2024-03-23T17:56:18;4.13;;;2.80;;
10987;SDS011;5547;42.672;23.230;2024-03-23T17:59:21;4.20;;;3.23;;
10987;SDS011;5547;42.672;23.230;2024-03-23T18:02:22;3.60;;;3.00;;
10987;SDS011;5547;42.672;23.230;2024-03-23T18:05:22;3.93;;;3.00;;
10987;SDS011;5547;42.672;23.230;2024-03-23T18:08:22;4.38;;;2.85;;
10987;SDS011;5547;42.672;23.230;2024-03-23T18:11:23;4.63;;;3.00;;
10987;SDS011;5547;42.672;23.230;2024-03-23T18:14:23;6.30;;;3.27;;
10987;SDS011;5547;42.672;23.230;2024-03-23T18:17:23;3.70;;;2.93;;
10987;SDS011;5547;42.672;23.230;2024-03-23T18:20:24;5.17;;;3.67;;
10987;SDS011;5547;42.672;23.230;2024-03-23T18:23:24;5.47;;;3.30;;
10987;SDS011;5547;42.672;23.230;2024-03-23T18:26:24;5.30;;;3.30;;
10987;SDS011;5547;42.672;23.230;2024-03-23T18:29:24;3.90;;;3.10;;
10987;SDS011;5547;42.672;23.230;2024-03-23T18:32:25;5.10;;;2.83;;
10987;SDS011;5547;42.672;23.230;2024-03-23T18:35:25;4.63;;;3.13;;
10987;SDS011;5547;42.672;23.230;2024-03-23T18:38:25;4.57;;;3.57;;
10987;SDS011;5547;42.672;23.230;2024-03-23T18:41:25;5.60;;;3.40;;
10987;SDS011;5547;42.672;23.230;2024-03-23T18:44:26;6.83;;;3.83;;
10987;SDS011;5547;42.672;23.230;2024-03-23T18:47:26;5.90;;;4.22;;